createdAt,value
2018-08-31T00:04:19.621Z,99.90
2018-08-31T00:06:52.584Z,99.90
2018-08-31T00:11:46.710Z,99.90
2018-08-31T00:14:13.712Z,99.90
2018-08-31T00:19:07.840Z,99.90
2018-08-31T00:21:34.820Z,99.90
2018-08-31T00:24:13.733Z,99.90
2018-08-31T00:32:14.076Z,99.90
2018-08-31T00:34:41.121Z,99.90
2018-08-31T00:37:08.110Z,99.90
2018-08-31T00:42:02.245Z,99.90
2018-08-31T00:44:29.242Z,99.90
2018-08-31T00:46:56.250Z,99.90
2018-08-31T00:49:23.292Z,99.90
2018-08-31T00:51:50.289Z,99.90
2018-08-31T00:54:17.289Z,99.90
2018-08-31T00:56:45.196Z,99.90
2018-08-31T00:59:12.218Z,99.90
2018-08-31T01:01:39.289Z,99.90
2018-08-31T01:04:06.342Z,99.90
2018-08-31T01:06:33.375Z,99.90
2018-08-31T01:09:00.386Z,99.90
2018-08-31T01:11:27.443Z,99.90
2018-08-31T01:13:54.479Z,99.90
2018-08-31T01:16:21.481Z,99.90
2018-08-31T01:18:48.536Z,99.90
2018-08-31T01:21:15.564Z,99.90
2018-08-31T01:26:09.722Z,99.90
2018-08-31T01:28:36.726Z,99.90
2018-08-31T01:31:03.772Z,99.90
2018-08-31T01:33:31.795Z,99.90
2018-08-31T01:35:58.823Z,99.90
2018-08-31T01:38:26.741Z,99.90
2018-08-31T01:40:53.800Z,99.90
2018-08-31T01:43:20.841Z,99.90
2018-08-31T01:50:53.549Z,99.90
2018-08-31T01:53:20.566Z,99.90
2018-08-31T01:55:47.609Z,99.90
2018-08-31T01:58:14.618Z,99.90
2018-08-31T02:00:41.625Z,99.90
2018-08-31T02:03:08.680Z,99.90
2018-08-31T02:05:35.709Z,99.90
2018-08-31T02:08:04.313Z,99.90
2018-08-31T02:10:30.766Z,99.90
2018-08-31T02:12:57.783Z,99.90
2018-08-31T02:15:24.804Z,99.90
2018-08-31T02:20:18.962Z,99.90
2018-08-31T02:22:45.960Z,99.90
2018-08-31T02:25:13.006Z,99.90
2018-08-31T02:27:40.001Z,99.90
2018-08-31T02:30:06.997Z,99.90
2018-08-31T02:32:34.025Z,99.90
2018-08-31T02:35:01.026Z,99.90
2018-08-31T02:37:28.037Z,99.90
2018-08-31T02:39:55.099Z,99.90
2018-08-31T02:42:22.115Z,99.90
2018-08-31T02:44:49.133Z,99.90
2018-08-31T02:47:16.175Z,99.90
2018-08-31T02:49:43.205Z,99.90
2018-08-31T02:52:10.952Z,99.90
2018-08-31T02:54:37.999Z,99.90
2018-08-31T02:57:05.024Z,99.90
2018-08-31T02:59:32.049Z,99.90
2018-08-31T03:01:59.105Z,99.90
2018-08-31T03:16:54.787Z,99.90
2018-08-31T03:19:22.261Z,99.90
2018-08-31T03:21:49.287Z,99.90
2018-08-31T03:24:16.353Z,99.90
2018-08-31T03:26:43.382Z,99.90
2018-08-31T03:29:10.398Z,99.90
2018-08-31T03:31:37.444Z,99.90
2018-08-31T03:34:04.448Z,99.90
2018-08-31T03:36:31.476Z,99.90
2018-08-31T03:38:58.550Z,99.90
2018-08-31T03:41:25.553Z,99.90
2018-08-31T03:43:52.564Z,99.90
2018-08-31T03:46:19.594Z,99.90
2018-08-31T03:48:46.604Z,99.90
2018-08-31T03:51:13.630Z,99.90
2018-08-31T03:53:40.686Z,99.90
2018-08-31T03:56:07.687Z,99.90
2018-08-31T03:58:34.686Z,99.90
2018-08-31T04:01:01.730Z,99.90
2018-08-31T04:03:28.736Z,99.90
2018-08-31T04:05:55.744Z,99.90
2018-08-31T04:08:22.808Z,99.90
2018-08-31T04:10:49.807Z,99.90
2018-08-31T04:15:56.534Z,99.90
2018-08-31T04:21:04.282Z,99.90
2018-08-31T04:23:31.291Z,99.90
2018-08-31T04:25:58.301Z,99.90
2018-08-31T04:28:26.188Z,99.90
2018-08-31T04:30:53.203Z,99.90
2018-08-31T04:33:21.049Z,99.90
2018-08-31T04:35:48.080Z,99.90
2018-08-31T04:38:15.913Z,99.90
2018-08-31T04:40:42.915Z,99.90
2018-08-31T04:43:13.808Z,99.90
2018-08-31T04:45:40.490Z,99.90
2018-08-31T04:50:34.631Z,99.90
2018-08-31T04:53:01.649Z,99.90
2018-08-31T04:55:28.669Z,99.90
2018-08-31T04:57:56.641Z,99.90
2018-08-31T05:03:04.813Z,99.90
2018-08-31T05:05:31.835Z,99.90
2018-08-31T05:07:58.893Z,99.90
2018-08-31T05:10:26.070Z,99.90
2018-08-31T05:12:53.116Z,99.90
2018-08-31T05:15:20.163Z,99.90
2018-08-31T05:17:48.051Z,99.90
2018-08-31T05:20:15.080Z,99.90
2018-08-31T05:22:42.175Z,99.90
2018-08-31T05:25:10.153Z,99.90
2018-08-31T05:27:38.069Z,99.90
2018-08-31T05:30:06.002Z,99.90
2018-08-31T05:32:33.085Z,99.90
2018-08-31T05:35:00.119Z,99.90
2018-08-31T05:37:28.307Z,99.90
2018-08-31T05:39:55.364Z,99.90
2018-08-31T05:42:22.406Z,99.90
2018-08-31T05:47:16.593Z,99.90
2018-08-31T05:49:43.837Z,99.90
2018-08-31T05:52:10.860Z,99.90
2018-08-31T05:54:38.004Z,99.90
2018-08-31T05:57:05.008Z,99.90
2018-08-31T05:59:32.067Z,99.90
2018-08-31T06:01:59.173Z,99.90
2018-08-31T06:04:26.152Z,99.90
2018-08-31T06:06:53.860Z,99.90
2018-08-31T06:09:20.924Z,99.90
2018-08-31T06:14:27.171Z,99.90
2018-08-31T06:16:54.428Z,99.90
2018-08-31T06:19:21.272Z,99.90
2018-08-31T06:21:48.348Z,99.90
2018-08-31T06:24:15.383Z,99.90
2018-08-31T06:26:42.407Z,99.90
2018-08-31T06:29:09.503Z,99.90
2018-08-31T06:31:36.535Z,99.90
2018-08-31T06:34:03.570Z,99.90
2018-08-31T06:36:30.696Z,99.90
2018-08-31T06:38:57.735Z,99.80
2018-08-31T06:41:24.765Z,99.90
2018-08-31T06:43:51.856Z,99.90
2018-08-31T06:46:18.889Z,99.70
2018-08-31T06:48:45.923Z,99.50
2018-08-31T06:51:13.017Z,99.70
2018-08-31T06:56:07.542Z,99.90
2018-08-31T06:58:35.550Z,99.90
2018-08-31T07:01:02.577Z,99.90
2018-08-31T07:03:30.459Z,99.90
2018-08-31T07:05:57.583Z,99.90
2018-08-31T07:08:24.617Z,99.90
2018-08-31T07:10:52.492Z,99.90
2018-08-31T07:13:19.566Z,99.90
2018-08-31T07:15:47.444Z,99.90
2018-08-31T07:18:14.479Z,99.90
2018-08-31T07:20:41.609Z,99.90
2018-08-31T07:23:08.619Z,99.90
2018-08-31T07:25:35.639Z,99.90
2018-08-31T07:28:02.713Z,99.90
2018-08-31T07:30:29.754Z,99.90
2018-08-31T07:32:56.800Z,99.90
2018-08-31T07:38:02.392Z,99.90
2018-08-31T07:40:30.656Z,99.90
2018-08-31T07:42:57.717Z,99.90
2018-08-31T07:45:24.754Z,99.90
2018-08-31T07:47:51.835Z,99.90
2018-08-31T07:50:18.841Z,99.90
2018-08-31T07:52:45.875Z,99.90
2018-08-31T07:55:12.957Z,99.90
2018-08-31T07:57:39.997Z,99.90
2018-08-31T08:00:07.012Z,99.90
2018-08-31T08:02:34.890Z,99.90
2018-08-31T08:05:01.964Z,99.90
2018-08-31T08:07:29.061Z,99.90
2018-08-31T08:09:56.077Z,99.90
2018-08-31T08:12:23.104Z,99.90
2018-08-31T08:14:50.187Z,99.90
2018-08-31T08:17:17.203Z,99.90
2018-08-31T08:19:44.274Z,99.90
2018-08-31T08:22:11.259Z,99.90
2018-08-31T08:24:38.348Z,99.90
2018-08-31T08:27:05.437Z,99.90
2018-08-31T08:32:04.970Z,99.90
2018-08-31T08:34:32.011Z,99.90
2018-08-31T08:36:59.047Z,99.90
2018-08-31T08:39:26.112Z,99.90
2018-08-31T08:41:53.172Z,99.90
2018-08-31T08:44:20.195Z,99.90
2018-08-31T08:46:48.206Z,99.90
2018-08-31T08:49:15.259Z,99.90
2018-08-31T08:51:42.313Z,99.90
2018-08-31T08:56:47.860Z,99.90
2018-08-31T08:59:14.956Z,99.90
2018-08-31T09:01:41.991Z,99.90
2018-08-31T09:06:36.366Z,99.90
2018-08-31T09:09:04.373Z,99.90
2018-08-31T09:11:31.969Z,99.90
2018-08-31T09:13:59.473Z,99.90
2018-08-31T09:16:26.521Z,99.90
2018-08-31T09:18:53.569Z,99.90
2018-08-31T09:26:14.899Z,99.90
2018-08-31T09:28:42.729Z,99.90
2018-08-31T09:31:09.798Z,99.90
2018-08-31T09:33:36.833Z,99.90
2018-08-31T09:36:03.911Z,99.90
2018-08-31T09:43:25.337Z,99.90
2018-08-31T09:45:52.376Z,99.90
2018-08-31T09:48:19.406Z,99.90
2018-08-31T09:50:46.504Z,99.90
2018-08-31T09:55:42.222Z,99.90
2018-08-31T09:58:09.293Z,99.90
2018-08-31T10:00:36.319Z,99.90
2018-08-31T10:07:58.604Z,99.90
2018-08-31T10:10:25.665Z,99.90
2018-08-31T10:12:52.767Z,99.90
2018-08-31T10:15:21.152Z,99.90
2018-08-31T10:20:28.098Z,99.90
2018-08-31T10:22:55.134Z,99.90
2018-08-31T10:25:22.154Z,99.90
2018-08-31T10:27:49.233Z,99.90
2018-08-31T10:30:16.793Z,99.90
2018-08-31T10:32:43.720Z,99.90
2018-08-31T10:35:10.826Z,99.90
2018-08-31T10:37:38.839Z,99.90
2018-08-31T10:40:05.884Z,99.90
2018-08-31T10:42:32.961Z,99.90
2018-08-31T10:45:00.025Z,99.90
2018-08-31T10:47:27.092Z,99.90
2018-08-31T10:52:32.985Z,99.90
2018-08-31T10:55:00.520Z,99.90
2018-08-31T10:57:27.563Z,99.90
2018-08-31T10:59:54.608Z,99.90
2018-08-31T11:04:48.809Z,99.90
2018-08-31T11:07:15.847Z,99.90
2018-08-31T11:09:42.920Z,99.90
2018-08-31T11:12:12.068Z,99.90
2018-08-31T11:14:39.102Z,99.90
2018-08-31T11:17:06.180Z,99.90
2018-08-31T11:22:00.433Z,99.90
2018-08-31T11:24:27.499Z,99.90
2018-08-31T11:26:54.521Z,99.90
2018-08-31T11:29:21.564Z,99.90
2018-08-31T11:31:48.625Z,99.90
2018-08-31T11:34:15.663Z,99.90
2018-08-31T11:36:43.539Z,99.90
2018-08-31T11:39:10.623Z,99.90
2018-08-31T11:41:38.438Z,99.90
2018-08-31T11:44:05.459Z,99.90
2018-08-31T11:46:33.434Z,99.90
2018-08-31T11:49:00.471Z,99.90
2018-08-31T11:54:06.229Z,99.90
2018-08-31T11:56:33.257Z,99.90
2018-08-31T11:59:00.288Z,99.90
2018-08-31T12:01:27.508Z,99.90
2018-08-31T12:03:55.418Z,99.90
2018-08-31T12:06:22.463Z,99.10
2018-08-31T12:08:49.915Z,99.80
2018-08-31T12:11:16.963Z,96.60
2018-08-31T12:13:44.024Z,98.50
2018-08-31T12:16:11.760Z,98.40
2018-08-31T12:18:38.823Z,96.60
2018-08-31T12:21:05.897Z,97.70
2018-08-31T12:23:33.012Z,98.70
2018-08-31T12:28:27.258Z,98.20
2018-08-31T12:30:54.329Z,97.90
2018-08-31T12:33:25.411Z,98.50
2018-08-31T12:35:53.365Z,97.10
2018-08-31T12:40:47.574Z,99.00
2018-08-31T12:43:14.632Z,99.40
2018-08-31T12:45:41.755Z,98.10
2018-08-31T12:48:09.325Z,96.00
2018-08-31T12:50:36.391Z,98.30
2018-08-31T12:53:03.737Z,99.10
2018-08-31T12:55:30.787Z,98.70
2018-08-31T12:57:57.832Z,99.20
2018-08-31T13:00:24.920Z,99.90
2018-08-31T13:02:51.974Z,99.90
2018-08-31T13:05:19.016Z,99.50
2018-08-31T13:07:46.073Z,99.60
2018-08-31T13:12:51.666Z,99.30
2018-08-31T13:15:18.741Z,99.90
2018-08-31T13:17:45.817Z,99.90
2018-08-31T13:20:13.651Z,99.30
2018-08-31T13:22:41.728Z,99.60
2018-08-31T13:25:08.757Z,99.90
2018-08-31T13:27:35.826Z,99.20
2018-08-31T13:30:03.088Z,99.50
2018-08-31T13:32:30.678Z,97.00
2018-08-31T13:39:52.511Z,98.10
2018-08-31T13:42:19.595Z,98.20
2018-08-31T13:44:46.645Z,98.70
2018-08-31T13:47:13.710Z,98.30
2018-08-31T13:49:40.864Z,99.90
2018-08-31T13:52:07.968Z,98.70
2018-08-31T13:54:35.001Z,99.40
2018-08-31T13:57:02.083Z,98.70
2018-08-31T13:59:29.137Z,98.70
2018-08-31T14:01:56.366Z,98.50
2018-08-31T14:04:23.529Z,96.10
2018-08-31T14:06:50.576Z,97.50
2018-08-31T14:09:18.431Z,97.50
2018-08-31T14:11:46.350Z,98.30
2018-08-31T14:14:13.369Z,98.20
2018-08-31T14:16:40.425Z,98.40
2018-08-31T14:21:46.456Z,97.70
2018-08-31T14:24:13.519Z,97.20
2018-08-31T14:26:41.949Z,97.00
2018-08-31T14:29:09.327Z,96.10
2018-08-31T14:31:36.405Z,95.40
2018-08-31T14:34:03.430Z,93.80
2018-08-31T14:36:30.505Z,94.00
2018-08-31T14:38:57.672Z,95.00
2018-08-31T14:41:24.721Z,95.60
2018-08-31T14:43:51.750Z,96.70
2018-08-31T14:46:18.811Z,97.60
2018-08-31T14:48:45.826Z,98.00
2018-08-31T14:51:13.686Z,98.80
2018-08-31T14:53:40.760Z,99.20
2018-08-31T14:56:07.821Z,99.00
2018-08-31T14:58:35.336Z,98.60
2018-08-31T15:01:02.371Z,99.10
2018-08-31T15:03:29.421Z,99.20
2018-08-31T15:05:56.601Z,99.30
2018-08-31T15:08:23.602Z,98.00
2018-08-31T15:13:17.740Z,98.70
2018-08-31T15:15:44.876Z,98.40
2018-08-31T15:18:12.145Z,99.20
2018-08-31T15:20:38.881Z,99.10
2018-08-31T15:23:05.997Z,99.50
2018-08-31T15:25:33.062Z,99.90
2018-08-31T15:30:27.228Z,99.10
2018-08-31T15:32:54.600Z,98.80
2018-08-31T15:35:21.635Z,99.10
2018-08-31T15:37:49.351Z,99.50
2018-08-31T15:42:54.934Z,99.20
2018-08-31T15:45:21.992Z,98.10
2018-08-31T15:47:49.039Z,96.70
2018-08-31T15:52:43.772Z,97.30
2018-08-31T15:55:10.807Z,97.70
2018-08-31T15:57:38.851Z,97.40
2018-08-31T16:02:33.060Z,95.30
2018-08-31T16:05:00.082Z,94.30
2018-08-31T16:07:27.561Z,94.40
2018-08-31T16:09:54.583Z,94.50
2018-08-31T16:12:21.672Z,94.10
2018-08-31T16:14:48.705Z,94.60
2018-08-31T16:17:15.766Z,96.60
2018-08-31T16:19:44.795Z,96.90
2018-08-31T16:22:10.425Z,97.50
2018-08-31T16:24:38.117Z,96.80
2018-08-31T16:27:05.832Z,96.50
2018-08-31T16:29:32.884Z,97.50
2018-08-31T16:31:59.917Z,98.50
2018-08-31T16:34:26.979Z,98.80
2018-08-31T16:36:54.102Z,98.50
2018-08-31T16:39:21.144Z,99.30
2018-08-31T16:41:48.241Z,99.90
2018-08-31T16:44:15.268Z,99.90
2018-08-31T16:46:42.735Z,99.90
2018-08-31T16:49:09.821Z,99.90
2018-08-31T16:51:36.842Z,99.90
2018-08-31T16:54:04.300Z,99.90
2018-08-31T16:59:10.240Z,99.90
2018-08-31T17:01:37.313Z,99.90
2018-08-31T17:06:31.464Z,99.70
2018-08-31T17:08:58.555Z,99.80
2018-08-31T17:11:25.602Z,99.40
2018-08-31T17:18:48.173Z,99.90
2018-08-31T17:21:15.219Z,99.90
2018-08-31T17:23:43.252Z,99.90
2018-08-31T17:26:10.293Z,99.90
2018-08-31T17:28:37.313Z,99.70
2018-08-31T17:31:04.396Z,99.90
2018-08-31T17:33:31.437Z,99.90
2018-08-31T17:35:58.484Z,99.90
2018-08-31T17:38:26.421Z,99.90
2018-08-31T17:40:54.047Z,99.90
2018-08-31T17:43:21.928Z,99.90
2018-08-31T17:45:50.028Z,99.90
2018-08-31T17:48:17.056Z,99.90
2018-08-31T17:50:44.967Z,99.90
2018-08-31T17:53:12.637Z,99.90
2018-08-31T17:55:39.646Z,99.90
2018-08-31T17:58:06.696Z,99.90
2018-08-31T18:00:33.771Z,99.90
2018-08-31T18:03:00.800Z,99.90
2018-08-31T18:05:27.928Z,99.90
2018-08-31T18:10:34.325Z,99.90
2018-08-31T18:13:01.385Z,99.90
2018-08-31T18:15:28.436Z,99.90
2018-08-31T18:17:55.478Z,99.90
2018-08-31T18:20:22.571Z,99.90
2018-08-31T18:22:49.613Z,99.90
2018-08-31T18:25:16.635Z,99.90
2018-08-31T18:30:10.866Z,99.90
2018-08-31T18:32:40.896Z,99.90
2018-08-31T18:35:05.020Z,99.90
2018-08-31T18:37:32.068Z,99.90
2018-08-31T18:42:26.285Z,99.90
2018-08-31T18:44:53.734Z,99.90
2018-08-31T18:47:21.313Z,99.90
2018-08-31T18:49:48.389Z,99.90
2018-08-31T18:52:15.425Z,99.90
2018-08-31T18:54:42.464Z,99.90
2018-08-31T18:57:09.535Z,99.90
2018-08-31T18:59:37.850Z,99.90
2018-08-31T19:02:04.901Z,99.90
2018-08-31T19:04:31.988Z,99.90
2018-08-31T19:06:59.131Z,99.90
2018-08-31T19:09:26.082Z,99.90
2018-08-31T19:11:53.706Z,99.90
2018-08-31T19:21:55.584Z,99.90
2018-08-31T19:24:23.323Z,99.90
2018-08-31T19:26:50.357Z,99.90
2018-08-31T19:32:01.621Z,99.90
2018-08-31T19:34:27.225Z,99.90
2018-08-31T19:36:54.233Z,99.90
2018-08-31T19:39:21.747Z,99.90
2018-08-31T19:41:48.720Z,99.90
2018-08-31T19:44:15.722Z,99.90
2018-08-31T19:46:42.793Z,99.90
2018-08-31T19:49:09.814Z,99.90
2018-08-31T19:51:36.841Z,99.90
2018-08-31T19:54:03.954Z,99.90
2018-08-31T19:56:30.876Z,99.90
2018-08-31T19:58:58.861Z,99.90
2018-08-31T20:01:25.856Z,99.90
2018-08-31T20:03:52.901Z,99.90
2018-08-31T20:06:19.932Z,99.90
2018-08-31T20:08:46.894Z,99.90
2018-08-31T20:11:13.944Z,99.90
2018-08-31T20:13:41.728Z,99.90
2018-08-31T20:16:08.696Z,99.90
2018-08-31T20:18:35.739Z,99.90
2018-08-31T20:21:02.739Z,99.90
2018-08-31T20:23:29.750Z,99.90
2018-08-31T20:25:56.789Z,99.90
2018-08-31T20:28:23.801Z,99.90
2018-08-31T20:30:50.857Z,99.90
2018-08-31T20:33:17.865Z,99.90
2018-08-31T20:35:44.897Z,99.90
2018-08-31T20:38:11.911Z,99.90
2018-08-31T20:40:38.932Z,99.90
2018-08-31T20:43:06.015Z,99.90
2018-08-31T20:45:33.048Z,99.90
2018-08-31T20:48:00.135Z,99.90
2018-08-31T20:55:32.788Z,99.90
2018-08-31T21:00:47.178Z,99.90
2018-08-31T21:03:13.647Z,99.90
2018-08-31T21:05:43.531Z,99.90
2018-08-31T21:08:11.384Z,99.90
2018-08-31T21:10:38.535Z,99.90
2018-08-31T21:15:36.706Z,99.90
2018-08-31T21:18:03.728Z,99.90
2018-08-31T21:20:30.799Z,99.90
2018-08-31T21:22:57.834Z,99.90
2018-08-31T21:25:24.875Z,99.90
2018-08-31T21:27:51.927Z,99.90
2018-08-31T21:30:18.958Z,99.90
2018-08-31T21:32:45.974Z,99.90
2018-08-31T21:37:40.180Z,99.90
2018-08-31T21:40:07.212Z,99.90
2018-08-31T21:42:34.422Z,99.90
2018-08-31T21:45:01.423Z,99.90
2018-08-31T21:47:28.455Z,99.90
2018-08-31T21:49:55.524Z,99.90
2018-08-31T21:52:23.106Z,99.90
2018-08-31T21:54:50.124Z,99.90
2018-08-31T21:57:17.214Z,99.90
2018-08-31T21:59:44.224Z,99.90
2018-08-31T22:02:11.259Z,99.90
2018-08-31T22:04:38.316Z,99.90
2018-08-31T22:09:44.072Z,99.90
2018-08-31T22:12:11.089Z,99.90
2018-08-31T22:14:38.100Z,99.90
2018-08-31T22:17:05.996Z,99.90
2018-08-31T22:19:32.836Z,99.90
2018-08-31T22:22:00.752Z,99.90
2018-08-31T22:24:28.638Z,99.90
2018-08-31T22:26:55.661Z,99.90
2018-08-31T22:29:22.682Z,99.90
2018-08-31T22:31:50.554Z,99.90
2018-08-31T22:34:17.579Z,99.90
2018-08-31T22:36:44.591Z,99.90
2018-08-31T22:39:12.610Z,99.90
2018-08-31T22:41:39.625Z,99.90
2018-08-31T22:44:06.663Z,99.90
2018-08-31T22:46:33.715Z,99.90
2018-08-31T22:49:00.735Z,99.90
2018-08-31T22:51:27.765Z,99.90
2018-08-31T22:53:54.833Z,99.90
2018-08-31T22:56:21.861Z,99.90
2018-08-31T22:58:48.879Z,99.90
2018-08-31T23:01:15.922Z,99.90
2018-08-31T23:03:43.911Z,99.90
2018-08-31T23:06:11.333Z,99.90
2018-08-31T23:08:39.028Z,99.90
2018-08-31T23:11:06.047Z,99.90
2018-08-31T23:16:01.931Z,99.90
2018-08-31T23:18:28.947Z,99.90
2018-08-31T23:20:55.971Z,99.90
2018-08-31T23:23:23.941Z,99.90
2018-08-31T23:25:50.978Z,99.90
2018-08-31T23:30:58.421Z,99.90
2018-08-31T23:33:26.405Z,99.90
2018-08-31T23:35:54.390Z,99.90
2018-08-31T23:38:21.438Z,99.90
2018-08-31T23:40:49.293Z,99.90
2018-08-31T23:43:16.318Z,99.90
2018-08-31T23:45:43.403Z,99.90
2018-08-31T23:48:10.459Z,99.90
2018-08-31T23:50:37.454Z,99.90
2018-08-31T23:53:04.530Z,99.90
2018-08-31T23:55:32.476Z,99.90
2018-08-31T23:57:59.491Z,99.90
